Time;durP1;ratioP1;P1;durP2;ratioP2;P2;SDS_P1;SDS_P2;PMS_P1;PMS_P2;Temp;Humidity;BMP_temperature;BMP_pressure;BME280_temperature;BME280_humidity;BME280_pressure;Samples;Min_cycle;Max_cycle;Signal;HPM_P1;HPM_P2
2021/09/28 00:02:12;;;;;;;10.00;3.02;;;;;;;7.80;72.75;100363.44;1720745;82;21057;-51
2021/09/28 00:04:38;;;;;;;2.65;1.10;;;;;;;7.78;72.79;100373.31;1720289;82;21078;-51
2021/09/28 00:07:05;;;;;;;3.67;1.40;;;;;;;7.74;72.84;100368.94;1720611;81;21058;-51
2021/09/28 00:09:31;;;;;;;4.13;1.07;;;;;;;7.72;72.67;100375.28;1721181;82;21089;-51
2021/09/28 00:11:57;;;;;;;6.23;2.20;;;;;;;7.69;72.54;100367.31;1720452;82;21791;-51
2021/09/28 00:14:26;;;;;;;3.37;1.97;;;;;;;7.61;72.52;100370.20;1720458;82;21061;-51
2021/09/28 00:16:52;;;;;;;4.80;1.40;;;;;;;7.55;72.60;100372.59;1723702;82;21710;-51
2021/09/28 00:19:18;;;;;;;3.43;1.17;;;;;;;7.50;72.82;100373.16;1720825;82;21359;-51
2021/09/28 00:21:46;;;;;;;1.40;1.00;;;;;;;7.48;72.96;100366.98;1721978;82;21267;-51
2021/09/28 00:24:14;;;;;;;2.43;1.23;;;;;;;7.47;72.98;100369.23;1724081;82;20914;-51
2021/09/28 00:26:40;;;;;;;1.50;0.90;;;;;;;7.47;72.83;100371.91;1726066;82;20994;-51
2021/09/28 00:29:07;;;;;;;5.50;0.90;;;;;;;7.47;72.75;100375.05;1722400;82;21050;-51
2021/09/28 00:31:33;;;;;;;4.03;1.00;;;;;;;7.47;72.60;100371.03;1722860;82;21081;-51
2021/09/28 00:34:00;;;;;;;1.57;0.80;;;;;;;7.43;72.56;100376.91;1724628;82;21128;-51
2021/09/28 00:36:27;;;;;;;3.00;0.80;;;;;;;7.41;72.68;100372.50;1679043;82;20903;-51
2021/09/28 00:38:53;;;;;;;2.93;1.30;;;;;;;7.38;72.79;100380.18;1724676;82;20930;-51
2021/09/28 00:41:19;;;;;;;1.40;0.97;;;;;;;7.35;72.85;100374.00;1722516;82;22032;-51
2021/09/28 00:43:53;;;;;;;1.53;0.80;;;;;;;7.29;72.87;100376.39;1725573;82;20910;-51
2021/09/28 00:46:23;;;;;;;2.40;0.90;;;;;;;7.27;72.76;100380.89;1723027;82;20875;-51
2021/09/28 00:48:50;;;;;;;3.10;1.00;;;;;;;7.21;72.61;100381.94;1723083;82;20914;-51
2021/09/28 00:51:16;;;;;;;1.43;0.80;;;;;;;7.18;72.66;100380.66;1723675;80;20965;-51
2021/09/28 00:53:43;;;;;;;2.80;0.80;;;;;;;7.13;72.57;100377.23;1723565;82;21929;-51
2021/09/28 00:56:13;;;;;;;2.47;0.80;;;;;;;7.10;72.55;100375.95;1721869;82;20895;-51
2021/09/28 00:58:40;;;;;;;1.57;0.80;;;;;;;7.06;72.45;100376.94;1683952;82;21053;-51
2021/09/28 01:01:08;;;;;;;5.87;0.87;;;;;;;7.00;72.55;100366.84;1724129;82;20972;-51
2021/09/28 01:03:34;;;;;;;6.53;1.03;;;;;;;6.96;72.58;100367.39;1700515;82;21006;-51
2021/09/28 01:06:01;;;;;;;3.43;0.83;;;;;;;6.93;72.52;100371.47;1723941;82;21076;-51
2021/09/28 01:08:28;;;;;;;4.83;1.00;;;;;;;6.89;72.58;100372.44;1723868;80;20973;-51
2021/09/28 01:10:55;;;;;;;2.93;0.90;;;;;;;6.86;72.65;100368.97;1723256;82;20863;-51
2021/09/28 01:13:23;;;;;;;7.20;0.90;;;;;;;6.82;72.66;100379.73;1725943;82;20863;-51
2021/09/28 01:16:04;;;;;;;3.77;0.97;;;;;;;6.79;72.72;100375.81;1722275;82;21413;-51
2021/09/28 01:18:34;;;;;;;1.73;0.90;;;;;;;6.76;72.88;100378.55;1724350;82;20934;-51
2021/09/28 01:21:01;;;;;;;5.90;0.90;;;;;;;6.73;72.79;100377.27;1720821;82;21124;-51
2021/09/28 01:23:28;;;;;;;3.93;0.90;;;;;;;6.70;72.85;100385.38;1724047;82;22100;-51
2021/09/28 01:25:54;;;;;;;2.30;0.80;;;;;;;6.68;73.02;100378.30;1720253;82;22902;-51
2021/09/28 01:28:21;;;;;;;2.00;0.80;;;;;;;6.68;72.80;100384.98;1719487;82;21692;-51
2021/09/28 01:30:47;;;;;;;7.57;1.07;;;;;;;6.66;72.86;100381.00;1717820;82;21484;-51
2021/09/28 01:33:15;;;;;;;1.30;1.00;;;;;;;6.64;72.87;100382.83;1722220;82;20930;-51
2021/09/28 01:35:42;;;;;;;1.93;0.80;;;;;;;6.62;73.01;100382.00;1721490;80;20997;-50
2021/09/28 01:38:08;;;;;;;1.90;1.07;;;;;;;6.62;72.96;100383.80;1722987;80;21029;-50
2021/09/28 01:40:36;;;;;;;4.17;1.00;;;;;;;6.59;72.89;100380.72;1718619;82;21097;-50
2021/09/28 01:43:07;;;;;;;1.73;1.13;;;;;;;6.56;72.84;100378.10;1718839;80;21133;-50
2021/09/28 01:45:33;;;;;;;3.20;1.33;;;;;;;6.54;72.90;100384.42;1721621;82;21508;-50
2021/09/28 01:48:01;;;;;;;8.83;2.33;;;;;;;6.50;73.04;100378.24;1721314;80;21689;-51
2021/09/28 01:50:28;;;;;;;9.73;2.07;;;;;;;6.50;73.23;100385.39;1717848;82;21125;-51
2021/09/28 01:52:54;;;;;;;3.47;1.00;;;;;;;6.50;73.38;100383.59;1686294;82;21108;-51
2021/09/28 01:55:22;;;;;;;1.80;1.10;;;;;;;6.51;73.51;100384.48;1722780;82;21133;-50
2021/09/28 01:57:56;;;;;;;5.40;1.50;;;;;;;6.51;73.68;100377.79;1720150;81;21124;-50
2021/09/28 02:00:20;;;;;;;16.07;3.47;;;;;;;6.53;73.87;100383.99;1721426;81;20931;-51
2021/09/28 02:02:47;;;;;;;8.83;2.47;;;;;;;6.55;74.16;100383.52;1723997;82;21046;-51
2021/09/28 02:05:15;;;;;;;8.17;2.50;;;;;;;6.56;74.39;100378.10;1720860;82;21375;-51
2021/09/28 02:07:41;;;;;;;6.57;2.23;;;;;;;6.56;74.48;100386.13;1713124;81;22023;-51
2021/09/28 02:10:09;;;;;;;12.63;3.20;;;;;;;6.57;74.50;100389.23;1705821;82;21105;-51
2021/09/28 02:12:35;;;;;;;6.83;2.50;;;;;;;6.58;74.45;100388.77;1708543;82;21073;-51
2021/09/28 02:15:02;;;;;;;4.27;2.83;;;;;;;6.56;74.34;100385.24;1705614;82;21054;-51
2021/09/28 02:17:30;;;;;;;7.83;3.20;;;;;;;6.54;74.34;100383.09;1708130;82;21464;-51
2021/09/28 02:19:56;;;;;;;3.67;2.77;;;;;;;6.53;74.35;100389.34;1707240;82;21101;-51
2021/09/28 02:22:23;;;;;;;6.07;2.53;;;;;;;6.52;74.27;100387.58;1708703;81;21007;-51
2021/09/28 02:24:49;;;;;;;2.63;1.67;;;;;;;6.51;74.30;100387.15;1707685;82;21121;-51
2021/09/28 02:27:16;;;;;;;5.13;1.80;;;;;;;6.50;74.28;100387.61;1705540;82;21066;-51
2021/09/28 02:29:42;;;;;;;3.37;2.10;;;;;;;6.50;74.19;100391.62;1706961;82;21137;-50
2021/09/28 02:32:09;;;;;;;1.80;1.40;;;;;;;6.51;74.15;100392.50;1705842;82;21051;-51
2021/09/28 02:34:35;;;;;;;2.93;1.30;;;;;;;6.50;74.24;100388.94;1709803;82;21027;-51
2021/09/28 02:37:04;;;;;;;3.63;1.63;;;;;;;6.51;74.36;100391.16;1711907;81;21070;-51
2021/09/28 02:39:31;;;;;;;4.80;1.50;;;;;;;6.50;74.55;100392.95;1710542;82;20934;-51
2021/09/28 02:41:58;;;;;;;2.80;1.03;;;;;;;6.50;75.00;100394.30;1706937;82;21113;-51
2021/09/28 02:44:24;;;;;;;7.80;2.23;;;;;;;6.51;75.31;100394.72;1704200;81;21993;-50
2021/09/28 02:46:50;;;;;;;4.43;1.30;;;;;;;6.51;75.58;100400.07;1704666;82;21052;-51
2021/09/28 02:49:17;;;;;;;6.63;1.50;;;;;;;6.51;75.57;100396.52;1708904;82;21268;-50
2021/09/28 02:51:44;;;;;;;7.30;1.73;;;;;;;6.50;75.54;100402.77;1705201;81;21348;-50
2021/09/28 02:54:11;;;;;;;1.20;1.00;;;;;;;6.49;75.72;100409.91;1704251;82;21375;-51
2021/09/28 02:56:37;;;;;;;2.77;0.90;;;;;;;6.49;75.74;100407.69;1704808;82;22944;-51
2021/09/28 02:59:04;;;;;;;2.63;1.37;;;;;;;6.48;75.58;100402.80;1708386;82;21070;-50
2021/09/28 03:01:30;;;;;;;2.00;1.30;;;;;;;6.46;75.33;100409.51;1708232;82;21359;-50
2021/09/28 03:03:57;;;;;;;1.90;1.00;;;;;;;6.44;75.14;100406.02;1708145;82;21371;-51
2021/09/28 03:06:23;;;;;;;1.63;1.20;;;;;;;6.44;75.01;100415.38;1706677;82;21054;-51
2021/09/28 03:08:50;;;;;;;2.03;1.20;;;;;;;6.42;74.81;100414.97;1718290;81;21051;-50
2021/09/28 03:11:16;;;;;;;3.40;1.83;;;;;;;6.40;74.49;100408.31;1713277;82;21089;-51
2021/09/28 03:13:43;;;;;;;1.97;1.50;;;;;;;6.38;74.19;100415.96;1712276;82;21069;-51
2021/09/28 03:16:11;;;;;;;3.00;2.13;;;;;;;6.32;74.16;100414.73;1717561;82;21090;-51
2021/09/28 03:18:37;;;;;;;4.00;1.70;;;;;;;6.27;74.34;100412.16;1712543;82;21125;-51
2021/09/28 03:21:05;;;;;;;2.20;1.40;;;;;;;6.24;74.74;100416.22;1714519;82;21545;-51
2021/09/28 03:23:31;;;;;;;3.30;1.70;;;;;;;6.25;75.22;100411.77;1712405;82;21112;-50
2021/09/28 03:25:58;;;;;;;5.10;2.30;;;;;;;6.29;76.28;100412.14;1713390;81;21109;-50
2021/09/28 03:28:24;;;;;;;3.43;2.97;;;;;;;6.35;77.39;100412.89;1715909;82;20946;-51
2021/09/28 03:30:51;;;;;;;3.67;2.30;;;;;;;6.46;78.37;100415.34;1718942;82;21058;-50
2021/09/28 03:33:17;;;;;;;5.30;2.13;;;;;;;6.57;79.30;100417.31;1720208;82;21105;-50
2021/09/28 03:35:44;;;;;;;6.77;2.03;;;;;;;6.71;79.95;100409.89;1716884;82;21010;-50
2021/09/28 03:38:11;;;;;;;2.77;2.17;;;;;;;6.85;80.62;100413.58;1720632;82;21057;-50
2021/09/28 03:40:39;;;;;;;2.47;2.27;;;;;;;6.99;81.09;100411.45;1717306;82;20887;-50
2021/09/28 03:43:10;;;;;;;6.87;2.63;;;;;;;7.11;81.43;100419.22;1717384;82;21062;-50
2021/09/28 03:45:35;;;;;;;3.93;3.00;;;;;;;7.23;81.76;100423.37;1716072;81;22538;-51
2021/09/28 03:48:04;;;;;;;6.63;3.67;;;;;;;7.35;82.00;100424.89;1718179;82;20959;-50
2021/09/28 03:50:32;;;;;;;7.57;3.60;;;;;;;7.45;82.24;100429.11;1718550;82;20939;-51
2021/09/28 03:52:58;;;;;;;5.73;5.10;;;;;;;7.54;82.34;100426.20;1719581;82;20990;-50
2021/09/28 03:55:26;;;;;;;6.20;5.30;;;;;;;7.62;82.47;100427.34;1688981;82;20926;-50
2021/09/28 03:57:53;;;;;;;5.77;4.67;;;;;;;7.69;82.53;100426.27;1720101;82;21809;-51
2021/09/28 04:00:21;;;;;;;5.35;4.92;;;;;;;7.76;82.57;100425.18;1718747;82;21883;-51
2021/09/28 04:02:48;;;;;;;6.97;4.80;;;;;;;7.83;82.64;100430.80;1718804;82;20927;-49
2021/09/28 04:05:15;;;;;;;4.83;4.00;;;;;;;7.89;82.79;100423.95;1719124;81;20945;-50
2021/09/28 04:07:41;;;;;;;3.33;3.03;;;;;;;7.96;82.83;100425.55;1717549;81;20864;-50
2021/09/28 04:10:09;;;;;;;5.37;3.75;;;;;;;8.03;82.92;100426.25;1707491;82;21084;-50
2021/09/28 04:12:37;;;;;;;5.67;4.10;;;;;;;8.09;82.94;100429.64;1705291;82;21360;-50
2021/09/28 04:15:05;;;;;;;5.83;5.22;;;;;;;8.17;82.96;100428.08;1707753;82;21094;-51
2021/09/28 04:17:32;;;;;;;6.10;4.72;;;;;;;8.23;82.87;100423.91;1709767;82;20943;-50
2021/09/28 04:19:59;;;;;;;5.08;4.78;;;;;;;8.27;82.83;100425.11;1714156;82;20979;-50
2021/09/28 04:22:25;;;;;;;4.45;3.22;;;;;;;8.31;82.69;100420.13;1711543;82;21094;-51
2021/09/28 04:24:52;;;;;;;5.50;3.37;;;;;;;8.35;82.61;100429.83;1677788;82;21054;-50
2021/09/28 04:27:19;;;;;;;4.60;2.47;;;;;;;8.37;82.56;100429.79;1706110;82;21049;-51
2021/09/28 04:29:45;;;;;;;3.55;2.62;;;;;;;8.39;82.58;100430.63;1707672;82;21039;-50
2021/09/28 04:32:12;;;;;;;3.02;2.83;;;;;;;8.43;82.62;100428.72;1706093;81;21117;-51
2021/09/28 04:34:39;;;;;;;6.03;5.28;;;;;;;8.44;82.56;100421.98;1710485;82;21078;-50
2021/09/28 04:37:05;;;;;;;8.98;5.60;;;;;;;8.47;82.65;100427.73;1705057;82;21043;-50
2021/09/28 04:39:33;;;;;;;9.05;6.85;;;;;;;8.51;82.67;100427.58;1703699;82;21030;-50
2021/09/28 04:42:00;;;;;;;6.87;5.05;;;;;;;8.57;82.68;100426.08;1707993;82;21665;-51
2021/09/28 04:44:27;;;;;;;9.58;4.92;;;;;;;8.60;82.63;100438.51;1707512;82;21141;-51
2021/09/28 04:46:55;;;;;;;7.70;6.55;;;;;;;8.59;82.53;100432.26;1705544;81;20994;-50
2021/09/28 04:49:21;;;;;;;24.40;15.48;;;;;;;8.60;82.67;100429.11;1706942;82;21532;-51
2021/09/28 04:51:47;;;;;;;14.60;11.70;;;;;;;8.64;82.66;100430.80;1708923;82;21069;-50
2021/09/28 04:54:14;;;;;;;15.30;11.22;;;;;;;8.66;82.58;100427.61;1709301;82;21094;-50
2021/09/28 04:56:40;;;;;;;8.83;7.75;;;;;;;8.70;82.55;100431.48;1707696;82;21070;-51
2021/09/28 04:59:06;;;;;;;9.25;7.95;;;;;;;8.73;82.48;100435.89;1705106;82;21114;-51
2021/09/28 05:01:33;;;;;;;11.10;9.73;;;;;;;8.72;82.30;100435.02;1708695;82;21058;-50
2021/09/28 05:03:59;;;;;;;12.65;11.35;;;;;;;8.73;82.36;100442.60;1707524;82;21046;-50
2021/09/28 05:06:27;;;;;;;14.18;11.60;;;;;;;8.77;82.41;100439.34;1706770;82;22636;-50
2021/09/28 05:08:55;;;;;;;13.45;12.03;;;;;;;8.82;82.41;100438.30;1718194;82;21137;-50
2021/09/28 05:11:23;;;;;;;9.65;7.80;;;;;;;8.87;82.45;100443.06;1723342;81;22297;-50
2021/09/28 05:13:49;;;;;;;8.13;7.53;;;;;;;8.97;82.41;100445.00;1721536;82;21507;-50
2021/09/28 05:16:15;;;;;;;5.65;4.80;;;;;;;9.04;82.44;100442.08;1723921;81;22172;-50
2021/09/28 05:18:42;;;;;;;4.45;4.05;;;;;;;9.14;82.36;100445.36;1725108;82;21037;-51
2021/09/28 05:21:10;;;;;;;4.80;3.42;;;;;;;9.22;82.28;100446.00;1721631;82;21357;-50
2021/09/28 05:23:37;;;;;;;7.62;5.33;;;;;;;9.29;82.21;100449.36;1720534;82;22417;-51
2021/09/28 05:26:03;;;;;;;3.40;3.15;;;;;;;9.34;81.91;100448.77;1721412;82;21045;-50
2021/09/28 05:28:30;;;;;;;7.03;4.17;;;;;;;9.38;81.78;100445.04;1720385;82;21092;-51
2021/09/28 05:30:57;;;;;;;4.70;4.33;;;;;;;9.43;81.67;100446.67;1719044;82;22297;-50
2021/09/28 05:33:24;;;;;;;4.87;4.37;;;;;;;9.49;81.64;100449.14;1722536;81;20918;-50
2021/09/28 05:35:50;;;;;;;10.35;5.75;;;;;;;9.59;81.53;100448.38;1722166;82;21470;-51
2021/09/28 05:38:16;;;;;;;8.25;5.28;;;;;;;9.68;81.28;100449.88;1721594;82;23032;-50
2021/09/28 05:40:43;;;;;;;12.30;6.53;;;;;;;9.72;80.90;100452.41;1720486;81;21057;-50
2021/09/28 05:43:09;;;;;;;8.30;7.00;;;;;;;9.74;80.64;100461.77;1719285;82;21109;-51
2021/09/28 05:45:35;;;;;;;10.32;4.80;;;;;;;9.74;80.53;100456.39;1722542;82;21089;-51
2021/09/28 05:48:03;;;;;;;11.75;5.62;;;;;;;9.75;80.42;100457.69;1723021;82;21120;-51
2021/09/28 05:50:31;;;;;;;11.55;7.55;;;;;;;9.76;80.35;100458.11;1714432;82;21415;-51
2021/09/28 05:52:57;;;;;;;12.33;6.75;;;;;;;9.78;80.33;100461.59;1719640;82;21834;-50
2021/09/28 05:55:24;;;;;;;16.27;8.58;;;;;;;9.83;80.17;100462.80;1722950;82;21748;-50
2021/09/28 05:57:50;;;;;;;18.52;9.63;;;;;;;9.87;80.06;100465.32;1723156;82;21053;-51
2021/09/28 06:00:17;;;;;;;19.23;11.43;;;;;;;9.90;79.93;100479.14;1723096;82;21109;-50
2021/09/28 06:02:43;;;;;;;19.62;13.65;;;;;;;9.91;79.66;100470.61;1722086;82;21594;-50
2021/09/28 06:05:10;;;;;;;21.27;12.85;;;;;;;9.91;79.64;100467.92;1719664;81;21474;-51
2021/09/28 06:07:37;;;;;;;20.90;11.05;;;;;;;9.91;79.62;100467.45;1725679;82;21036;-51
2021/09/28 06:10:05;;;;;;;17.55;11.88;;;;;;;9.94;79.43;100474.08;1709202;82;21611;-51
2021/09/28 06:12:32;;;;;;;15.08;10.40;;;;;;;9.95;79.34;100478.53;1711385;82;21623;-50
2021/09/28 06:15:00;;;;;;;16.37;9.43;;;;;;;9.99;79.29;100478.83;1706324;82;21082;-51
2021/09/28 06:17:26;;;;;;;19.48;9.33;;;;;;;10.03;79.30;100481.84;1705699;81;21033;-50
2021/09/28 06:19:52;;;;;;;12.53;10.10;;;;;;;10.11;79.34;100474.37;1707837;82;21093;-50
2021/09/28 06:22:19;;;;;;;16.17;12.73;;;;;;;10.17;79.25;100480.00;1709772;82;21030;-51
2021/09/28 06:24:45;;;;;;;15.60;13.98;;;;;;;10.21;79.20;100474.48;1705522;82;21137;-51
2021/09/28 06:27:11;;;;;;;21.05;13.78;;;;;;;10.27;78.96;100477.91;1706600;82;21682;-51
2021/09/28 06:29:38;;;;;;;16.90;12.50;;;;;;;10.28;78.83;100476.98;1708470;82;21344;-51
2021/09/28 06:32:06;;;;;;;19.48;11.18;;;;;;;10.33;78.77;100473.64;1706456;81;21184;-51
2021/09/28 06:34:34;;;;;;;14.93;11.25;;;;;;;10.37;78.66;100472.14;1692338;82;20923;-51
2021/09/28 06:37:00;;;;;;;19.30;9.30;;;;;;;10.44;78.51;100478.18;1717272;82;21068;-51
2021/09/28 06:39:27;;;;;;;12.60;9.15;;;;;;;10.52;78.37;100481.47;1712563;82;20915;-51
2021/09/28 06:41:54;;;;;;;14.90;7.60;;;;;;;10.60;78.28;100468.14;1709196;82;20884;-51
2021/09/28 06:44:20;;;;;;;12.55;7.85;;;;;;;10.73;78.25;100467.66;1711932;81;20959;-51
2021/09/28 06:46:46;;;;;;;14.30;9.03;;;;;;;10.85;78.12;100477.52;1709618;82;20944;-51
2021/09/28 06:49:13;;;;;;;12.93;10.15;;;;;;;10.98;77.65;100479.27;1712665;81;21749;-52
2021/09/28 06:51:39;;;;;;;14.98;8.48;;;;;;;11.10;77.40;100476.58;1711691;82;20935;-51
2021/09/28 06:54:05;;;;;;;16.35;10.45;;;;;;;11.22;77.16;100478.80;1712140;82;20970;-51
2021/09/28 06:56:32;;;;;;;16.00;8.75;;;;;;;11.32;76.65;100483.75;1710301;82;20876;-51
2021/09/28 06:58:58;;;;;;;13.93;8.53;;;;;;;11.41;76.33;100474.88;1708058;82;20907;-52
2021/09/28 07:01:25;;;;;;;15.45;8.13;;;;;;;11.50;75.89;100486.65;1709816;82;21790;-52
2021/09/28 07:03:51;;;;;;;14.40;6.55;;;;;;;11.57;75.66;100482.29;1711993;82;20951;-52
2021/09/28 07:06:18;;;;;;;15.58;8.38;;;;;;;11.67;75.32;100488.19;1712135;82;20951;-51
2021/09/28 07:08:44;;;;;;;15.78;8.73;;;;;;;11.76;74.80;100487.84;1716437;82;20913;-51
2021/09/28 07:11:10;;;;;;;12.63;8.48;;;;;;;11.87;74.60;100486.94;1725766;82;20973;-51
2021/09/28 07:13:38;;;;;;;14.73;8.73;;;;;;;11.97;74.16;100488.78;1721990;82;20906;-51
2021/09/28 07:16:06;;;;;;;21.27;9.70;;;;;;;12.07;73.75;100495.55;1725794;80;20930;-51
2021/09/28 07:18:32;;;;;;;14.20;9.43;;;;;;;12.12;73.31;100491.70;1729786;82;20916;-51
2021/09/28 07:20:59;;;;;;;17.90;10.38;;;;;;;12.16;72.79;100499.21;1720281;82;21094;-50
2021/09/28 07:23:26;;;;;;;15.98;9.38;;;;;;;12.07;72.56;100499.13;1718637;82;21497;-50
2021/09/28 07:25:52;;;;;;;20.77;8.85;;;;;;;12.05;72.62;100498.31;1723146;82;22459;-51
2021/09/28 07:28:19;;;;;;;13.32;7.47;;;;;;;12.09;72.73;100496.34;1720253;82;21445;-50
2021/09/28 07:30:45;;;;;;;10.85;7.45;;;;;;;12.15;72.57;100497.92;1725691;82;20926;-51
2021/09/28 07:33:13;;;;;;;11.73;7.50;;;;;;;12.22;72.51;100510.20;1724563;80;21069;-51
2021/09/28 07:35:43;;;;;;;13.60;7.70;;;;;;;12.29;72.25;100504.47;1721040;82;21073;-52
2021/09/28 07:38:09;;;;;;;10.78;8.45;;;;;;;12.36;72.13;100509.13;1722472;82;21167;-50
2021/09/28 07:40:35;;;;;;;10.38;8.75;;;;;;;12.40;71.84;100507.59;1717096;80;21045;-51
2021/09/28 07:43:02;;;;;;;11.57;7.87;;;;;;;12.43;71.45;100508.78;1720725;82;21054;-51
2021/09/28 07:45:28;;;;;;;8.00;4.35;;;;;;;12.42;71.30;100512.42;1722862;82;21086;-51
2021/09/28 07:47:55;;;;;;;6.25;4.62;;;;;;;12.40;71.13;100511.64;1721269;82;21139;-49
2021/09/28 07:50:21;;;;;;;5.45;2.58;;;;;;;12.39;70.82;100512.58;1721270;82;21117;-50
2021/09/28 07:52:47;;;;;;;6.90;2.62;;;;;;;12.39;70.47;100511.70;1720210;82;21116;-51
2021/09/28 07:55:13;;;;;;;4.50;2.02;;;;;;;12.38;70.07;100518.04;1721688;82;21453;-50
2021/09/28 07:57:41;;;;;;;8.90;2.30;;;;;;;12.34;69.83;100522.68;1717943;82;21109;-50
2021/09/28 08:00:09;;;;;;;8.70;2.42;;;;;;;12.35;69.73;100522.21;1722831;82;21069;-51
2021/09/28 08:02:42;;;;;;;3.27;2.75;;;;;;;12.37;69.79;100524.38;1724021;82;21944;-51
2021/09/28 08:05:10;;;;;;;4.15;2.60;;;;;;;12.35;69.48;100524.44;1723586;82;20974;-51
2021/09/28 08:07:38;;;;;;;3.35;2.80;;;;;;;12.32;69.51;100519.20;1717155;82;21037;-51
2021/09/28 08:10:07;;;;;;;5.40;2.50;;;;;;;12.32;69.19;100531.81;1719096;82;21077;-50
2021/09/28 08:12:34;;;;;;;7.40;2.15;;;;;;;12.28;69.09;100522.08;1722555;81;21653;-50
2021/09/28 08:15:03;;;;;;;9.75;2.70;;;;;;;12.23;68.99;100520.05;1721766;81;21387;-51
2021/09/28 08:17:29;;;;;;;5.72;3.10;;;;;;;12.21;68.97;100524.16;1720338;82;21370;-51
2021/09/28 08:19:57;;;;;;;7.42;3.25;;;;;;;12.17;68.92;100522.52;1718708;82;21044;-51
2021/09/28 08:23:54;;;;;;;5.90;3.90;;;;;;;12.21;69.02;100516.54;1777622;78;24233;-51
2021/09/28 08:29:09;;;;;;;5.05;4.28;;;;;;;12.25;68.94;100523.58;1697845;81;21149;-52
2021/09/28 08:31:46;;;;;;;8.75;3.42;;;;;;;12.28;68.92;100530.17;1697081;82;21946;-52
2021/09/28 08:34:12;;;;;;;5.30;3.90;;;;;;;12.32;68.52;100531.81;1680055;84;22333;-52
2021/09/28 08:36:39;;;;;;;8.23;3.98;;;;;;;12.33;68.28;100529.52;1685802;82;21328;-52
2021/09/28 08:39:08;;;;;;;8.80;4.25;;;;;;;12.35;68.25;100528.95;1682215;83;21081;-52
2021/09/28 08:41:37;;;;;;;7.60;3.40;;;;;;;12.38;68.27;100529.72;1681178;84;21158;-51
2021/09/28 08:44:04;;;;;;;12.18;3.35;;;;;;;12.42;67.94;100529.09;1669426;84;21427;-52
2021/09/28 08:46:30;;;;;;;13.83;3.25;;;;;;;12.44;67.79;100536.20;1678443;84;22992;-52
2021/09/28 08:48:57;;;;;;;11.63;4.67;;;;;;;12.50;67.69;100535.07;1677076;84;21780;-51
2021/09/28 08:51:23;;;;;;;8.78;2.70;;;;;;;12.55;67.64;100536.20;1680865;82;21666;-52
2021/09/28 08:53:50;;;;;;;10.72;3.12;;;;;;;12.59;67.55;100540.54;1678195;83;21113;-53
2021/09/28 08:56:17;;;;;;;10.58;4.25;;;;;;;12.64;67.39;100534.45;1679227;84;21137;-51
2021/09/28 08:59:00;;;;;;;7.60;3.52;;;;;;;12.68;67.04;100535.58;1684513;84;21013;-51
2021/09/28 09:01:29;;;;;;;12.47;3.40;;;;;;;12.71;67.06;100534.58;1684707;82;21545;-51
2021/09/28 09:04:14;;;;;;;8.00;3.70;;;;;;;12.74;67.02;100531.75;1654014;84;21156;-51
2021/09/28 09:06:41;;;;;;;;;;;;;;;12.74;66.55;100535.33;1680407;84;21555;-52
2021/09/28 09:09:07;;;;;;;14.30;4.87;;;;;;;12.75;66.47;100539.79;1683410;84;20145;-51
2021/09/28 09:11:36;;;;;;;14.30;3.30;;;;;;;12.77;66.32;100536.52;1684312;84;20970;-51
2021/09/28 09:14:19;;;;;;;10.70;2.75;;;;;;;12.81;66.08;100530.52;1684434;83;21001;-52
2021/09/28 09:16:55;;;;;;;11.90;3.50;;;;;;;12.97;65.49;100533.41;1683422;84;21320;-52
2021/09/28 09:19:27;;;;;;;9.20;2.55;;;;;;;12.97;65.49;100533.41;1682138;84;23096;-52
2021/09/28 09:22:00;;;;;;;11.25;2.50;;;;;;;13.13;64.98;100536.72;1686258;84;20990;-51
2021/09/28 09:24:50;;;;;;;7.37;2.30;;;;;;;13.13;64.98;100536.72;1660941;85;20920;-51
2021/09/28 09:27:29;;;;;;;18.02;2.27;;;;;;;13.21;64.77;100536.36;1684032;83;20993;-52
2021/09/28 09:30:19;;;;;;;17.10;3.22;;;;;;;13.27;64.49;100534.70;1676142;84;21027;-52
2021/09/28 09:32:55;;;;;;;13.72;3.45;;;;;;;13.31;63.88;100540.39;1660412;83;21114;-52
2021/09/28 09:35:33;;;;;;;10.85;3.58;;;;;;;13.33;63.53;100543.91;1686212;82;21722;-53
2021/09/28 09:38:07;;;;;;;14.75;3.30;;;;;;;13.37;63.46;100543.27;1676141;83;20962;-52
2021/09/28 09:40:42;;;;;;;12.43;2.72;;;;;;;13.38;62.50;100542.33;1689517;82;20930;-51
2021/09/28 09:43:09;;;;;;;14.80;2.37;;;;;;;13.38;62.96;100541.85;1676081;82;20930;-52
2021/09/28 09:45:37;;;;;;;7.17;2.60;;;;;;;13.42;63.06;100552.06;1676413;83;21094;-51
2021/09/28 09:48:24;;;;;;;5.67;1.85;;;;;;;13.45;62.31;100541.08;1666815;83;20922;-51
2021/09/28 09:51:03;;;;;;;11.50;2.33;;;;;;;13.47;62.15;100542.77;1675064;83;20946;-52
2021/09/28 09:53:30;;;;;;;16.52;2.67;;;;;;;13.49;61.53;100542.23;1661983;82;21097;-52
2021/09/28 09:55:56;;;;;;;12.33;2.87;;;;;;;13.51;61.73;100542.16;1686284;82;20895;-51
2021/09/28 09:58:24;;;;;;;15.35;2.12;;;;;;;13.58;61.53;100535.50;1675430;83;21732;-52
2021/09/28 10:00:54;;;;;;;17.00;2.83;;;;;;;13.65;61.35;100536.95;1658646;84;20988;-52
2021/09/28 10:03:20;;;;;;;10.55;2.58;;;;;;;13.74;61.05;100536.98;1685935;82;20978;-53
2021/09/28 10:05:47;;;;;;;17.70;2.72;;;;;;;13.77;60.65;100536.84;1686721;82;20946;-52
2021/09/28 10:08:13;;;;;;;10.23;3.65;;;;;;;13.76;60.33;100544.09;1677237;83;20986;-52
2021/09/28 10:10:43;;;;;;;13.00;2.98;;;;;;;13.73;60.37;100538.81;1665675;83;21075;-53
2021/09/28 10:13:47;;;;;;;13.28;4.03;;;;;;;13.76;60.50;100537.80;1657790;84;20918;-52
2021/09/28 10:16:41;;;;;;;13.75;2.15;;;;;;;13.83;60.66;100539.24;1650525;84;21205;-52
2021/09/28 10:19:36;;;;;;;15.15;3.37;;;;;;;13.92;59.62;100538.31;1662857;83;21171;-52
2021/09/28 10:22:02;;;;;;;16.42;3.75;;;;;;;13.96;59.55;100538.55;1659488;83;21148;-51
2021/09/28 10:24:31;;;;;;;14.05;2.45;;;;;;;13.98;59.71;100533.06;1686086;83;21140;-52
2021/09/28 10:27:04;;;;;;;18.55;3.42;;;;;;;14.00;59.65;100536.58;1669280;83;21375;-53
2021/09/28 10:29:44;;;;;;;23.73;2.90;;;;;;;13.95;59.11;100536.79;1697314;82;21147;-52
2021/09/28 10:32:34;;;;;;;19.23;2.22;;;;;;;13.90;59.11;100536.63;1697258;82;21083;-52
2021/09/28 10:35:09;;;;;;;15.53;2.17;;;;;;;13.86;59.35;100544.04;1672711;82;21061;-52
2021/09/28 10:37:53;;;;;;;14.70;2.80;;;;;;;13.81;59.51;100545.20;1691479;82;21150;-51
2021/09/28 10:40:25;;;;;;;18.80;3.77;;;;;;;13.76;59.84;100550.84;1676620;83;21767;-51
2021/09/28 10:43:01;;;;;;;8.85;2.00;;;;;;;13.63;60.07;100551.91;1691810;82;21082;-52
2021/09/28 10:45:36;;;;;;;12.37;2.62;;;;;;;13.49;60.60;100550.34;1691147;82;21438;-52
2021/09/28 10:48:18;;;;;;;10.70;2.33;;;;;;;13.40;61.35;100554.83;1667306;83;21530;-52
2021/09/28 10:50:41;;;;;;;11.78;2.08;;;;;;;13.35;61.67;100566.35;1677833;83;21186;-51
2021/09/28 10:53:23;;;;;;;18.37;3.20;;;;;;;13.29;61.81;100561.20;1671663;83;20985;-53
2021/09/28 10:56:01;;;;;;;11.70;2.62;;;;;;;13.22;61.97;100563.33;1668369;83;21095;-51
2021/09/28 10:58:28;;;;;;;13.48;3.00;;;;;;;13.14;61.71;100564.16;1695077;82;21076;-53
2021/09/28 11:01:00;;;;;;;12.20;2.75;;;;;;;13.03;62.04;100558.79;1694855;82;21127;-51
2021/09/28 11:03:58;;;;;;;16.10;3.77;;;;;;;13.03;62.04;100558.79;1693541;82;21537;-51
2021/09/28 11:06:45;;;;;;;21.25;3.90;;;;;;;13.04;62.37;100565.95;1670379;83;21060;-53
2021/09/28 11:09:13;;;;;;;15.08;3.47;;;;;;;13.04;62.89;100564.60;1660640;83;21546;-52
2021/09/28 11:11:41;;;;;;;10.70;3.35;;;;;;;13.04;62.89;100564.60;1676692;82;21703;-52
2021/09/28 11:14:09;;;;;;;14.55;3.62;;;;;;;13.01;62.77;100568.34;1696434;82;21425;-52
2021/09/28 11:16:58;;;;;;;12.55;2.17;;;;;;;13.00;62.91;100568.41;1681994;83;21152;-53
2021/09/28 11:19:38;;;;;;;16.93;3.25;;;;;;;12.93;63.51;100575.04;1672981;83;20969;-52
2021/09/28 11:22:07;;;;;;;11.50;2.55;;;;;;;12.93;63.51;100575.04;1696341;83;20987;-53
2021/09/28 11:24:34;;;;;;;16.15;2.30;;;;;;;12.87;63.97;100576.17;1679922;82;21065;-53
2021/09/28 11:27:09;;;;;;;10.60;1.77;;;;;;;12.83;63.96;100578.16;1675532;83;21333;-53
2021/09/28 11:29:35;;;;;;;11.63;1.32;;;;;;;12.79;63.94;100578.34;1676197;83;21053;-52
2021/09/28 11:32:04;;;;;;;12.37;2.20;;;;;;;12.76;64.04;100580.69;1666558;83;21495;-53
2021/09/28 11:34:38;;;;;;;14.33;2.52;;;;;;;12.73;64.23;100582.20;1671992;83;20915;-52
2021/09/28 11:37:05;;;;;;;19.35;3.47;;;;;;;12.66;64.65;100579.84;1673006;83;21009;-52
2021/09/28 11:39:35;;;;;;;14.15;3.60;;;;;;;12.61;64.63;100581.84;1669651;83;21009;-52